sensor_id;sensor_type;location;lat;lon;timestamp;P1;durP1;ratioP1;P2;durP2;ratioP2
25327;SDS011;13279;51.300;12.394;2023-08-30T00:00:01;3.60;;;2.70;;
25327;SDS011;13279;51.300;12.394;2023-08-30T00:02:32;6.07;;;3.13;;
25327;SDS011;13279;51.300;12.394;2023-08-30T00:04:59;3.23;;;2.43;;
25327;SDS011;13279;51.300;12.394;2023-08-30T00:07:28;4.33;;;3.27;;
25327;SDS011;13279;51.300;12.394;2023-08-30T00:09:57;7.63;;;3.00;;
25327;SDS011;13279;51.300;12.394;2023-08-30T00:12:25;3.10;;;2.90;;
25327;SDS011;13279;51.300;12.394;2023-08-30T00:14:52;6.87;;;3.00;;
25327;SDS011;13279;51.300;12.394;2023-08-30T00:17:20;6.57;;;2.90;;
25327;SDS011;13279;51.300;12.394;2023-08-30T00:19:47;4.60;;;3.07;;
25327;SDS011;13279;51.300;12.394;2023-08-30T00:22:15;4.67;;;3.00;;
25327;SDS011;13279;51.300;12.394;2023-08-30T00:24:44;5.93;;;2.87;;
25327;SDS011;13279;51.300;12.394;2023-08-30T00:27:12;3.40;;;2.90;;
25327;SDS011;13279;51.300;12.394;2023-08-30T00:29:39;4.70;;;3.10;;
25327;SDS011;13279;51.300;12.394;2023-08-30T00:32:07;3.90;;;2.77;;
25327;SDS011;13279;51.300;12.394;2023-08-30T00:34:35;3.13;;;2.83;;
25327;SDS011;13279;51.300;12.394;2023-08-30T00:37:03;4.77;;;3.03;;
25327;SDS011;13279;51.300;12.394;2023-08-30T00:39:30;11.57;;;3.73;;
25327;SDS011;13279;51.300;12.394;2023-08-30T00:42:00;3.27;;;2.97;;
25327;SDS011;13279;51.300;12.394;2023-08-30T00:44:31;6.57;;;2.30;;
25327;SDS011;13279;51.300;12.394;2023-08-30T00:46:59;7.60;;;3.13;;
25327;SDS011;13279;51.300;12.394;2023-08-30T00:49:26;6.07;;;3.10;;
25327;SDS011;13279;51.300;12.394;2023-08-30T00:51:56;4.90;;;2.67;;
25327;SDS011;13279;51.300;12.394;2023-08-30T00:54:26;3.27;;;2.80;;
25327;SDS011;13279;51.300;12.394;2023-08-30T00:56:53;6.70;;;3.07;;
25327;SDS011;13279;51.300;12.394;2023-08-30T00:59:22;3.57;;;2.73;;
25327;SDS011;13279;51.300;12.394;2023-08-30T01:01:53;7.23;;;3.07;;
25327;SDS011;13279;51.300;12.394;2023-08-30T01:04:22;7.93;;;2.57;;
25327;SDS011;13279;51.300;12.394;2023-08-30T01:06:49;4.10;;;2.67;;
25327;SDS011;13279;51.300;12.394;2023-08-30T01:09:18;4.23;;;3.10;;
25327;SDS011;13279;51.300;12.394;2023-08-30T01:11:46;3.40;;;2.83;;
25327;SDS011;13279;51.300;12.394;2023-08-30T01:14:29;7.80;;;3.50;;
25327;SDS011;13279;51.300;12.394;2023-08-30T01:17:00;7.00;;;3.07;;
25327;SDS011;13279;51.300;12.394;2023-08-30T01:19:34;4.07;;;3.17;;
25327;SDS011;13279;51.300;12.394;2023-08-30T01:22:11;6.33;;;2.60;;
25327;SDS011;13279;51.300;12.394;2023-08-30T01:24:45;4.33;;;2.60;;
25327;SDS011;13279;51.300;12.394;2023-08-30T01:27:23;3.57;;;2.93;;
25327;SDS011;13279;51.300;12.394;2023-08-30T01:29:53;4.83;;;2.90;;
25327;SDS011;13279;51.300;12.394;2023-08-30T01:32:22;4.90;;;3.00;;
25327;SDS011;13279;51.300;12.394;2023-08-30T01:34:54;4.03;;;2.60;;
25327;SDS011;13279;51.300;12.394;2023-08-30T01:37:22;10.13;;;2.60;;
25327;SDS011;13279;51.300;12.394;2023-08-30T01:39:52;4.13;;;2.63;;
25327;SDS011;13279;51.300;12.394;2023-08-30T01:42:24;4.13;;;2.40;;
25327;SDS011;13279;51.300;12.394;2023-08-30T01:44:53;6.33;;;2.50;;
25327;SDS011;13279;51.300;12.394;2023-08-30T01:47:24;10.03;;;2.60;;
25327;SDS011;13279;51.300;12.394;2023-08-30T01:49:54;7.33;;;2.97;;
25327;SDS011;13279;51.300;12.394;2023-08-30T01:52:24;11.23;;;2.90;;
25327;SDS011;13279;51.300;12.394;2023-08-30T01:54:52;9.00;;;2.70;;
25327;SDS011;13279;51.300;12.394;2023-08-30T01:57:20;7.43;;;3.13;;
25327;SDS011;13279;51.300;12.394;2023-08-30T01:59:48;4.90;;;2.80;;
25327;SDS011;13279;51.300;12.394;2023-08-30T02:02:16;4.83;;;2.70;;
25327;SDS011;13279;51.300;12.394;2023-08-30T02:04:44;6.23;;;2.80;;
25327;SDS011;13279;51.300;12.394;2023-08-30T02:07:13;7.27;;;2.90;;
25327;SDS011;13279;51.300;12.394;2023-08-30T02:09:46;7.17;;;2.90;;
25327;SDS011;13279;51.300;12.394;2023-08-30T02:12:17;3.47;;;2.57;;
25327;SDS011;13279;51.300;12.394;2023-08-30T02:14:47;5.67;;;2.97;;
25327;SDS011;13279;51.300;12.394;2023-08-30T02:17:17;3.33;;;3.03;;
25327;SDS011;13279;51.300;12.394;2023-08-30T02:19:44;6.30;;;3.40;;
25327;SDS011;13279;51.300;12.394;2023-08-30T02:22:17;3.40;;;3.20;;
25327;SDS011;13279;51.300;12.394;2023-08-30T02:24:45;4.23;;;3.03;;
25327;SDS011;13279;51.300;12.394;2023-08-30T02:27:12;7.13;;;3.10;;
25327;SDS011;13279;51.300;12.394;2023-08-30T02:29:40;6.20;;;3.27;;
25327;SDS011;13279;51.300;12.394;2023-08-30T02:32:08;3.77;;;3.47;;
25327;SDS011;13279;51.300;12.394;2023-08-30T02:34:36;8.07;;;3.50;;
25327;SDS011;13279;51.300;12.394;2023-08-30T02:37:03;6.93;;;4.53;;
25327;SDS011;13279;51.300;12.394;2023-08-30T02:39:30;5.50;;;3.30;;
25327;SDS011;13279;51.300;12.394;2023-08-30T02:41:59;8.27;;;3.47;;
25327;SDS011;13279;51.300;12.394;2023-08-30T02:44:27;4.97;;;3.47;;
25327;SDS011;13279;51.300;12.394;2023-08-30T02:46:54;3.63;;;3.27;;
25327;SDS011;13279;51.300;12.394;2023-08-30T02:49:23;6.37;;;4.47;;
25327;SDS011;13279;51.300;12.394;2023-08-30T02:51:50;5.87;;;4.83;;
25327;SDS011;13279;51.300;12.394;2023-08-30T02:54:18;6.67;;;4.80;;
25327;SDS011;13279;51.300;12.394;2023-08-30T02:56:45;9.37;;;5.37;;
25327;SDS011;13279;51.300;12.394;2023-08-30T02:59:13;8.90;;;5.53;;
25327;SDS011;13279;51.300;12.394;2023-08-30T03:01:40;9.90;;;5.50;;
25327;SDS011;13279;51.300;12.394;2023-08-30T03:04:09;6.80;;;6.10;;
25327;SDS011;13279;51.300;12.394;2023-08-30T03:06:38;8.17;;;6.27;;
25327;SDS011;13279;51.300;12.394;2023-08-30T03:09:06;9.50;;;6.30;;
25327;SDS011;13279;51.300;12.394;2023-08-30T03:11:35;7.70;;;5.40;;
25327;SDS011;13279;51.300;12.394;2023-08-30T03:14:03;11.43;;;5.87;;
25327;SDS011;13279;51.300;12.394;2023-08-30T03:16:30;8.17;;;6.00;;
25327;SDS011;13279;51.300;12.394;2023-08-30T03:18:58;6.90;;;6.20;;
25327;SDS011;13279;51.300;12.394;2023-08-30T03:21:25;10.83;;;5.63;;
25327;SDS011;13279;51.300;12.394;2023-08-30T03:23:55;6.27;;;5.40;;
25327;SDS011;13279;51.300;12.394;2023-08-30T03:26:22;7.60;;;5.40;;
25327;SDS011;13279;51.300;12.394;2023-08-30T03:28:49;11.00;;;6.30;;
25327;SDS011;13279;51.300;12.394;2023-08-30T03:31:17;7.43;;;5.47;;
25327;SDS011;13279;51.300;12.394;2023-08-30T03:33:46;19.80;;;5.53;;
25327;SDS011;13279;51.300;12.394;2023-08-30T03:36:15;10.53;;;5.70;;
25327;SDS011;13279;51.300;12.394;2023-08-30T03:38:44;9.03;;;6.03;;
25327;SDS011;13279;51.300;12.394;2023-08-30T03:41:13;9.20;;;6.30;;
25327;SDS011;13279;51.300;12.394;2023-08-30T03:43:43;10.00;;;6.90;;
25327;SDS011;13279;51.300;12.394;2023-08-30T03:46:11;12.03;;;6.73;;
25327;SDS011;13279;51.300;12.394;2023-08-30T03:48:38;8.37;;;6.10;;
25327;SDS011;13279;51.300;12.394;2023-08-30T03:51:06;12.60;;;6.30;;
25327;SDS011;13279;51.300;12.394;2023-08-30T03:53:33;9.97;;;5.90;;
25327;SDS011;13279;51.300;12.394;2023-08-30T03:56:01;7.23;;;6.00;;
25327;SDS011;13279;51.300;12.394;2023-08-30T03:58:30;9.87;;;6.43;;
25327;SDS011;13279;51.300;12.394;2023-08-30T04:00:58;9.20;;;5.80;;
25327;SDS011;13279;51.300;12.394;2023-08-30T04:03:26;9.80;;;6.10;;
25327;SDS011;13279;51.300;12.394;2023-08-30T04:05:57;7.00;;;5.60;;
25327;SDS011;13279;51.300;12.394;2023-08-30T04:08:25;6.67;;;5.60;;
25327;SDS011;13279;51.300;12.394;2023-08-30T04:10:52;7.13;;;6.43;;
25327;SDS011;13279;51.300;12.394;2023-08-30T04:13:20;9.27;;;6.20;;
25327;SDS011;13279;51.300;12.394;2023-08-30T04:15:49;9.00;;;6.30;;
25327;SDS011;13279;51.300;12.394;2023-08-30T04:18:18;12.13;;;6.07;;
25327;SDS011;13279;51.300;12.394;2023-08-30T04:20:45;6.77;;;6.10;;
25327;SDS011;13279;51.300;12.394;2023-08-30T04:23:14;10.73;;;7.00;;
25327;SDS011;13279;51.300;12.394;2023-08-30T04:25:43;8.17;;;7.33;;
25327;SDS011;13279;51.300;12.394;2023-08-30T04:28:11;8.43;;;7.27;;
25327;SDS011;13279;51.300;12.394;2023-08-30T04:30:39;9.10;;;7.03;;
25327;SDS011;13279;51.300;12.394;2023-08-30T04:33:08;12.53;;;7.50;;
25327;SDS011;13279;51.300;12.394;2023-08-30T04:35:35;8.40;;;6.80;;
25327;SDS011;13279;51.300;12.394;2023-08-30T04:38:04;12.63;;;6.60;;
25327;SDS011;13279;51.300;12.394;2023-08-30T04:40:31;7.37;;;6.40;;
25327;SDS011;13279;51.300;12.394;2023-08-30T04:43:00;9.77;;;6.63;;
25327;SDS011;13279;51.300;12.394;2023-08-30T04:45:27;10.27;;;7.30;;
25327;SDS011;13279;51.300;12.394;2023-08-30T04:47:55;7.57;;;6.07;;
25327;SDS011;13279;51.300;12.394;2023-08-30T04:50:27;9.43;;;6.73;;
25327;SDS011;13279;51.300;12.394;2023-08-30T04:52:56;9.37;;;6.77;;
25327;SDS011;13279;51.300;12.394;2023-08-30T04:55:24;14.67;;;7.33;;
25327;SDS011;13279;51.300;12.394;2023-08-30T04:57:52;7.37;;;5.90;;
25327;SDS011;13279;51.300;12.394;2023-08-30T05:00:21;9.43;;;6.57;;
25327;SDS011;13279;51.300;12.394;2023-08-30T05:02:51;10.13;;;6.83;;
25327;SDS011;13279;51.300;12.394;2023-08-30T05:05:21;14.73;;;6.03;;
25327;SDS011;13279;51.300;12.394;2023-08-30T05:07:50;9.77;;;5.87;;
25327;SDS011;13279;51.300;12.394;2023-08-30T05:10:18;7.00;;;6.30;;
25327;SDS011;13279;51.300;12.394;2023-08-30T05:12:45;11.10;;;6.73;;
25327;SDS011;13279;51.300;12.394;2023-08-30T05:15:17;14.83;;;6.50;;
25327;SDS011;13279;51.300;12.394;2023-08-30T05:17:46;7.73;;;6.50;;
25327;SDS011;13279;51.300;12.394;2023-08-30T05:20:15;10.40;;;6.03;;
25327;SDS011;13279;51.300;12.394;2023-08-30T05:22:44;8.77;;;6.17;;
25327;SDS011;13279;51.300;12.394;2023-08-30T05:25:13;8.50;;;6.53;;
25327;SDS011;13279;51.300;12.394;2023-08-30T05:27:40;7.83;;;6.23;;
25327;SDS011;13279;51.300;12.394;2023-08-30T05:30:12;9.23;;;6.43;;
25327;SDS011;13279;51.300;12.394;2023-08-30T05:32:41;6.90;;;6.27;;
25327;SDS011;13279;51.300;12.394;2023-08-30T05:35:34;7.10;;;6.13;;
25327;SDS011;13279;51.300;12.394;2023-08-30T05:38:29;9.17;;;6.37;;
25327;SDS011;13279;51.300;12.394;2023-08-30T05:41:08;9.27;;;6.33;;
25327;SDS011;13279;51.300;12.394;2023-08-30T05:43:36;8.00;;;6.50;;
25327;SDS011;13279;51.300;12.394;2023-08-30T05:46:03;7.63;;;6.67;;
25327;SDS011;13279;51.300;12.394;2023-08-30T05:48:32;7.50;;;6.43;;
25327;SDS011;13279;51.300;12.394;2023-08-30T05:51:03;7.33;;;6.00;;
25327;SDS011;13279;51.300;12.394;2023-08-30T05:53:36;7.77;;;6.43;;
25327;SDS011;13279;51.300;12.394;2023-08-30T05:56:03;7.03;;;6.33;;
25327;SDS011;13279;51.300;12.394;2023-08-30T05:58:33;6.37;;;5.77;;
25327;SDS011;13279;51.300;12.394;2023-08-30T06:01:01;7.47;;;5.40;;
25327;SDS011;13279;51.300;12.394;2023-08-30T06:03:29;8.73;;;6.27;;
25327;SDS011;13279;51.300;12.394;2023-08-30T06:05:56;8.87;;;6.30;;
25327;SDS011;13279;51.300;12.394;2023-08-30T06:08:23;8.87;;;5.80;;
25327;SDS011;13279;51.300;12.394;2023-08-30T06:10:51;8.50;;;5.23;;
25327;SDS011;13279;51.300;12.394;2023-08-30T06:13:18;8.70;;;5.47;;
25327;SDS011;13279;51.300;12.394;2023-08-30T06:15:51;9.73;;;6.43;;
25327;SDS011;13279;51.300;12.394;2023-08-30T06:18:19;6.73;;;5.73;;
25327;SDS011;13279;51.300;12.394;2023-08-30T06:20:46;7.27;;;5.53;;
25327;SDS011;13279;51.300;12.394;2023-08-30T06:23:14;7.93;;;6.00;;
25327;SDS011;13279;51.300;12.394;2023-08-30T06:25:52;6.93;;;6.00;;
25327;SDS011;13279;51.300;12.394;2023-08-30T06:28:20;9.77;;;5.80;;
25327;SDS011;13279;51.300;12.394;2023-08-30T06:30:48;9.40;;;6.13;;
25327;SDS011;13279;51.300;12.394;2023-08-30T06:33:17;6.17;;;5.57;;
25327;SDS011;13279;51.300;12.394;2023-08-30T06:35:47;8.67;;;4.90;;
25327;SDS011;13279;51.300;12.394;2023-08-30T06:38:16;7.87;;;5.97;;
25327;SDS011;13279;51.300;12.394;2023-08-30T06:40:43;9.20;;;5.70;;
25327;SDS011;13279;51.300;12.394;2023-08-30T06:43:11;15.17;;;6.37;;
25327;SDS011;13279;51.300;12.394;2023-08-30T06:45:39;8.37;;;5.80;;
25327;SDS011;13279;51.300;12.394;2023-08-30T06:48:08;8.43;;;6.40;;
25327;SDS011;13279;51.300;12.394;2023-08-30T06:50:37;7.40;;;5.33;;
25327;SDS011;13279;51.300;12.394;2023-08-30T06:53:06;8.70;;;6.17;;
25327;SDS011;13279;51.300;12.394;2023-08-30T06:55:34;10.43;;;6.00;;
25327;SDS011;13279;51.300;12.394;2023-08-30T06:58:03;7.67;;;5.00;;
25327;SDS011;13279;51.300;12.394;2023-08-30T07:00:31;12.07;;;5.00;;
25327;SDS011;13279;51.300;12.394;2023-08-30T07:02:58;8.07;;;5.07;;
25327;SDS011;13279;51.300;12.394;2023-08-30T07:05:26;5.63;;;5.13;;
25327;SDS011;13279;51.300;12.394;2023-08-30T07:07:55;5.47;;;4.57;;
25327;SDS011;13279;51.300;12.394;2023-08-30T07:10:22;6.50;;;4.97;;
25327;SDS011;13279;51.300;12.394;2023-08-30T07:12:50;6.30;;;5.40;;
25327;SDS011;13279;51.300;12.394;2023-08-30T07:15:17;8.40;;;5.20;;
25327;SDS011;13279;51.300;12.394;2023-08-30T07:17:45;5.93;;;4.80;;
25327;SDS011;13279;51.300;12.394;2023-08-30T07:20:12;4.60;;;4.27;;
25327;SDS011;13279;51.300;12.394;2023-08-30T07:22:39;6.07;;;4.17;;
25327;SDS011;13279;51.300;12.394;2023-08-30T07:25:08;7.23;;;4.07;;
25327;SDS011;13279;51.300;12.394;2023-08-30T07:27:36;5.40;;;4.60;;
25327;SDS011;13279;51.300;12.394;2023-08-30T07:30:04;4.33;;;3.83;;
25327;SDS011;13279;51.300;12.394;2023-08-30T07:32:33;7.33;;;3.30;;
25327;SDS011;13279;51.300;12.394;2023-08-30T07:35:01;4.63;;;3.57;;
25327;SDS011;13279;51.300;12.394;2023-08-30T07:37:29;9.23;;;4.53;;
25327;SDS011;13279;51.300;12.394;2023-08-30T07:39:56;5.83;;;3.73;;
25327;SDS011;13279;51.300;12.394;2023-08-30T07:42:25;6.63;;;2.93;;
25327;SDS011;13279;51.300;12.394;2023-08-30T07:44:52;7.63;;;3.30;;
25327;SDS011;13279;51.300;12.394;2023-08-30T07:47:19;5.03;;;3.30;;
25327;SDS011;13279;51.300;12.394;2023-08-30T07:49:47;10.43;;;4.03;;
25327;SDS011;13279;51.300;12.394;2023-08-30T07:52:14;4.27;;;3.80;;
25327;SDS011;13279;51.300;12.394;2023-08-30T07:54:41;5.13;;;3.13;;
25327;SDS011;13279;51.300;12.394;2023-08-30T07:57:09;5.83;;;3.53;;
25327;SDS011;13279;51.300;12.394;2023-08-30T07:59:38;7.73;;;3.30;;
25327;SDS011;13279;51.300;12.394;2023-08-30T08:02:05;8.53;;;3.87;;
25327;SDS011;13279;51.300;12.394;2023-08-30T08:04:33;5.83;;;3.90;;
25327;SDS011;13279;51.300;12.394;2023-08-30T08:07:01;3.53;;;3.30;;
25327;SDS011;13279;51.300;12.394;2023-08-30T08:09:30;6.40;;;3.17;;
25327;SDS011;13279;51.300;12.394;2023-08-30T08:11:57;4.13;;;3.20;;
25327;SDS011;13279;51.300;12.394;2023-08-30T08:14:24;4.60;;;2.87;;
25327;SDS011;13279;51.300;12.394;2023-08-30T08:16:54;4.27;;;2.77;;
25327;SDS011;13279;51.300;12.394;2023-08-30T08:19:21;8.17;;;2.90;;
25327;SDS011;13279;51.300;12.394;2023-08-30T08:21:48;4.67;;;2.73;;
25327;SDS011;13279;51.300;12.394;2023-08-30T08:24:16;4.27;;;2.63;;
25327;SDS011;13279;51.300;12.394;2023-08-30T08:26:43;4.50;;;2.00;;
25327;SDS011;13279;51.300;12.394;2023-08-30T08:29:11;8.40;;;2.40;;
25327;SDS011;13279;51.300;12.394;2023-08-30T08:31:40;5.83;;;2.30;;
25327;SDS011;13279;51.300;12.394;2023-08-30T08:34:09;3.93;;;2.63;;
25327;SDS011;13279;51.300;12.394;2023-08-30T08:36:37;4.33;;;2.70;;
25327;SDS011;13279;51.300;12.394;2023-08-30T08:39:05;3.37;;;1.93;;
25327;SDS011;13279;51.300;12.394;2023-08-30T08:41:35;2.87;;;2.67;;
25327;SDS011;13279;51.300;12.394;2023-08-30T08:44:06;4.43;;;2.73;;
25327;SDS011;13279;51.300;12.394;2023-08-30T08:46:34;8.27;;;3.43;;
25327;SDS011;13279;51.300;12.394;2023-08-30T08:49:05;6.30;;;2.80;;
25327;SDS011;13279;51.300;12.394;2023-08-30T08:51:38;2.93;;;2.33;;
25327;SDS011;13279;51.300;12.394;2023-08-30T08:54:07;2.07;;;1.87;;
25327;SDS011;13279;51.300;12.394;2023-08-30T08:56:36;2.10;;;1.90;;
25327;SDS011;13279;51.300;12.394;2023-08-30T08:59:04;2.73;;;1.90;;
25327;SDS011;13279;51.300;12.394;2023-08-30T09:01:34;2.60;;;2.27;;
25327;SDS011;13279;51.300;12.394;2023-08-30T09:04:05;3.10;;;2.30;;
25327;SDS011;13279;51.300;12.394;2023-08-30T09:06:35;4.10;;;1.90;;
25327;SDS011;13279;51.300;12.394;2023-08-30T09:09:03;2.57;;;1.97;;
25327;SDS011;13279;51.300;12.394;2023-08-30T09:11:32;2.13;;;1.90;;
25327;SDS011;13279;51.300;12.394;2023-08-30T09:13:59;2.53;;;1.70;;
25327;SDS011;13279;51.300;12.394;2023-08-30T09:16:27;3.40;;;1.80;;
25327;SDS011;13279;51.300;12.394;2023-08-30T09:18:58;1.60;;;1.47;;
25327;SDS011;13279;51.300;12.394;2023-08-30T09:21:26;2.07;;;1.60;;
25327;SDS011;13279;51.300;12.394;2023-08-30T09:23:58;1.33;;;1.23;;
25327;SDS011;13279;51.300;12.394;2023-08-30T09:26:26;5.37;;;1.93;;
25327;SDS011;13279;51.300;12.394;2023-08-30T09:29:00;2.33;;;1.60;;
25327;SDS011;13279;51.300;12.394;2023-08-30T09:31:33;3.90;;;1.47;;
25327;SDS011;13279;51.300;12.394;2023-08-30T09:34:01;1.30;;;1.23;;
25327;SDS011;13279;51.300;12.394;2023-08-30T09:36:35;1.40;;;1.30;;
25327;SDS011;13279;51.300;12.394;2023-08-30T09:39:05;1.40;;;1.30;;
25327;SDS011;13279;51.300;12.394;2023-08-30T09:41:36;1.57;;;1.37;;
25327;SDS011;13279;51.300;12.394;2023-08-30T09:44:06;4.13;;;1.50;;
25327;SDS011;13279;51.300;12.394;2023-08-30T09:46:45;2.03;;;1.27;;
25327;SDS011;13279;51.300;12.394;2023-08-30T09:49:13;2.23;;;1.03;;
25327;SDS011;13279;51.300;12.394;2023-08-30T09:51:40;2.67;;;1.33;;
25327;SDS011;13279;51.300;12.394;2023-08-30T09:54:13;1.67;;;1.57;;
25327;SDS011;13279;51.300;12.394;2023-08-30T09:56:43;1.43;;;1.30;;
25327;SDS011;13279;51.300;12.394;2023-08-30T09:59:10;2.47;;;1.30;;
25327;SDS011;13279;51.300;12.394;2023-08-30T10:01:40;3.60;;;1.50;;
25327;SDS011;13279;51.300;12.394;2023-08-30T10:04:09;2.13;;;1.40;;
25327;SDS011;13279;51.300;12.394;2023-08-30T10:06:37;6.37;;;1.40;;
25327;SDS011;13279;51.300;12.394;2023-08-30T10:09:05;2.17;;;1.40;;
25327;SDS011;13279;51.300;12.394;2023-08-30T10:11:36;1.50;;;1.20;;
25327;SDS011;13279;51.300;12.394;2023-08-30T10:14:04;2.77;;;1.70;;
25327;SDS011;13279;51.300;12.394;2023-08-30T10:16:35;3.73;;;1.60;;
25327;SDS011;13279;51.300;12.394;2023-08-30T10:19:10;4.40;;;1.30;;
25327;SDS011;13279;51.300;12.394;2023-08-30T10:21:41;4.30;;;1.53;;
25327;SDS011;13279;51.300;12.394;2023-08-30T10:24:11;3.17;;;1.47;;
25327;SDS011;13279;51.300;12.394;2023-08-30T10:26:41;1.37;;;1.27;;
25327;SDS011;13279;51.300;12.394;2023-08-30T10:29:12;4.00;;;1.53;;
25327;SDS011;13279;51.300;12.394;2023-08-30T10:31:42;1.00;;;1.00;;
25327;SDS011;13279;51.300;12.394;2023-08-30T10:34:13;0.90;;;0.90;;
25327;SDS011;13279;51.300;12.394;2023-08-30T10:36:42;3.93;;;1.30;;
25327;SDS011;13279;51.300;12.394;2023-08-30T10:39:12;0.93;;;0.93;;
25327;SDS011;13279;51.300;12.394;2023-08-30T10:41:55;1.03;;;0.93;;
25327;SDS011;13279;51.300;12.394;2023-08-30T10:44:23;4.20;;;1.30;;
25327;SDS011;13279;51.300;12.394;2023-08-30T10:46:53;1.23;;;0.90;;
25327;SDS011;13279;51.300;12.394;2023-08-30T10:49:22;0.70;;;0.70;;
25327;SDS011;13279;51.300;12.394;2023-08-30T10:51:54;2.00;;;1.17;;
25327;SDS011;13279;51.300;12.394;2023-08-30T10:54:22;2.47;;;1.33;;
25327;SDS011;13279;51.300;12.394;2023-08-30T10:56:56;1.90;;;1.10;;
25327;SDS011;13279;51.300;12.394;2023-08-30T10:59:26;1.97;;;1.07;;
25327;SDS011;13279;51.300;12.394;2023-08-30T11:01:55;1.27;;;0.90;;
25327;SDS011;13279;51.300;12.394;2023-08-30T11:04:22;3.80;;;1.60;;
25327;SDS011;13279;51.300;12.394;2023-08-30T11:06:50;4.23;;;1.40;;
25327;SDS011;13279;51.300;12.394;2023-08-30T11:09:19;4.20;;;1.20;;
25327;SDS011;13279;51.300;12.394;2023-08-30T11:11:47;3.07;;;1.50;;
25327;SDS011;13279;51.300;12.394;2023-08-30T11:14:18;3.87;;;2.27;;
25327;SDS011;13279;51.300;12.394;2023-08-30T11:16:45;6.03;;;2.13;;
25327;SDS011;13279;51.300;12.394;2023-08-30T11:19:13;4.60;;;2.57;;
25327;SDS011;13279;51.300;12.394;2023-08-30T11:21:42;3.40;;;2.57;;
25327;SDS011;13279;51.300;12.394;2023-08-30T11:24:11;2.50;;;2.30;;
25327;SDS011;13279;51.300;12.394;2023-08-30T11:26:38;1.60;;;1.53;;
25327;SDS011;13279;51.300;12.394;2023-08-30T11:29:06;2.97;;;1.43;;
25327;SDS011;13279;51.300;12.394;2023-08-30T11:31:35;2.90;;;1.77;;
25327;SDS011;13279;51.300;12.394;2023-08-30T11:34:03;1.63;;;1.53;;
25327;SDS011;13279;51.300;12.394;2023-08-30T11:36:32;1.73;;;1.60;;
25327;SDS011;13279;51.300;12.394;2023-08-30T11:39:02;1.70;;;1.60;;
25327;SDS011;13279;51.300;12.394;2023-08-30T11:41:30;1.40;;;1.33;;
25327;SDS011;13279;51.300;12.394;2023-08-30T11:43:58;3.50;;;1.33;;
25327;SDS011;13279;51.300;12.394;2023-08-30T11:46:26;4.13;;;1.17;;
25327;SDS011;13279;51.300;12.394;2023-08-30T11:48:55;2.37;;;1.50;;
25327;SDS011;13279;51.300;12.394;2023-08-30T11:51:22;1.60;;;1.30;;
25327;SDS011;13279;51.300;12.394;2023-08-30T11:53:49;1.93;;;1.40;;
25327;SDS011;13279;51.300;12.394;2023-08-30T11:56:17;5.37;;;1.37;;
25327;SDS011;13279;51.300;12.394;2023-08-30T11:58:45;2.37;;;1.30;;
25327;SDS011;13279;51.300;12.394;2023-08-30T12:01:13;1.57;;;1.20;;
25327;SDS011;13279;51.300;12.394;2023-08-30T12:03:40;3.50;;;1.60;;
25327;SDS011;13279;51.300;12.394;2023-08-30T12:06:12;1.33;;;1.23;;
25327;SDS011;13279;51.300;12.394;2023-08-30T12:08:40;2.47;;;1.20;;
25327;SDS011;13279;51.300;12.394;2023-08-30T12:11:16;2.57;;;1.20;;
25327;SDS011;13279;51.300;12.394;2023-08-30T12:13:45;1.13;;;1.13;;
25327;SDS011;13279;51.300;12.394;2023-08-30T12:16:15;2.87;;;1.10;;
25327;SDS011;13279;51.300;12.394;2023-08-30T12:18:44;1.53;;;1.43;;
25327;SDS011;13279;51.300;12.394;2023-08-30T12:21:13;1.87;;;1.40;;
25327;SDS011;13279;51.300;12.394;2023-08-30T12:23:41;1.57;;;0.90;;
25327;SDS011;13279;51.300;12.394;2023-08-30T12:26:09;0.80;;;0.80;;
25327;SDS011;13279;51.300;12.394;2023-08-30T12:28:38;1.87;;;0.80;;
25327;SDS011;13279;51.300;12.394;2023-08-30T12:31:07;2.63;;;1.30;;
25327;SDS011;13279;51.300;12.394;2023-08-30T12:33:35;1.63;;;1.07;;
25327;SDS011;13279;51.300;12.394;2023-08-30T12:36:02;1.30;;;1.13;;
25327;SDS011;13279;51.300;12.394;2023-08-30T12:38:32;1.13;;;1.00;;
25327;SDS011;13279;51.300;12.394;2023-08-30T12:41:00;1.93;;;1.40;;
25327;SDS011;13279;51.300;12.394;2023-08-30T12:43:28;2.93;;;1.40;;
25327;SDS011;13279;51.300;12.394;2023-08-30T12:45:55;4.13;;;1.63;;
25327;SDS011;13279;51.300;12.394;2023-08-30T12:48:23;1.20;;;1.10;;
25327;SDS011;13279;51.300;12.394;2023-08-30T12:50:50;1.60;;;0.97;;
25327;SDS011;13279;51.300;12.394;2023-08-30T12:53:18;1.20;;;1.10;;
25327;SDS011;13279;51.300;12.394;2023-08-30T12:55:46;1.20;;;1.10;;
25327;SDS011;13279;51.300;12.394;2023-08-30T12:58:14;1.33;;;1.00;;
25327;SDS011;13279;51.300;12.394;2023-08-30T13:00:41;2.37;;;1.37;;
25327;SDS011;13279;51.300;12.394;2023-08-30T13:03:09;1.50;;;0.80;;
25327;SDS011;13279;51.300;12.394;2023-08-30T13:05:36;2.23;;;1.00;;
25327;SDS011;13279;51.300;12.394;2023-08-30T13:08:04;2.50;;;1.00;;
25327;SDS011;13279;51.300;12.394;2023-08-30T13:10:31;1.83;;;0.97;;
25327;SDS011;13279;51.300;12.394;2023-08-30T13:13:01;2.87;;;0.87;;
25327;SDS011;13279;51.300;12.394;2023-08-30T13:15:28;0.97;;;0.70;;
25327;SDS011;13279;51.300;12.394;2023-08-30T13:17:55;3.37;;;0.77;;
25327;SDS011;13279;51.300;12.394;2023-08-30T13:20:23;0.53;;;0.53;;
25327;SDS011;13279;51.300;12.394;2023-08-30T13:22:50;0.60;;;0.60;;
25327;SDS011;13279;51.300;12.394;2023-08-30T13:25:17;3.07;;;0.70;;
25327;SDS011;13279;51.300;12.394;2023-08-30T13:27:45;1.30;;;0.90;;
25327;SDS011;13279;51.300;12.394;2023-08-30T13:30:14;0.60;;;0.60;;
25327;SDS011;13279;51.300;12.394;2023-08-30T13:32:42;0.70;;;0.70;;
25327;SDS011;13279;51.300;12.394;2023-08-30T13:35:09;1.00;;;1.00;;
25327;SDS011;13279;51.300;12.394;2023-08-30T13:37:36;2.53;;;1.23;;
25327;SDS011;13279;51.300;12.394;2023-08-30T13:40:04;0.70;;;0.70;;
25327;SDS011;13279;51.300;12.394;2023-08-30T13:42:32;0.70;;;0.70;;
25327;SDS011;13279;51.300;12.394;2023-08-30T13:44:59;0.80;;;0.80;;
25327;SDS011;13279;51.300;12.394;2023-08-30T13:47:28;2.90;;;0.93;;
25327;SDS011;13279;51.300;12.394;2023-08-30T13:49:55;1.87;;;1.00;;
25327;SDS011;13279;51.300;12.394;2023-08-30T13:52:25;1.77;;;1.10;;
25327;SDS011;13279;51.300;12.394;2023-08-30T13:54:54;1.07;;;1.00;;
25327;SDS011;13279;51.300;12.394;2023-08-30T13:57:22;2.23;;;1.13;;
25327;SDS011;13279;51.300;12.394;2023-08-30T13:59:49;1.23;;;1.13;;
25327;SDS011;13279;51.300;12.394;2023-08-30T14:02:17;1.57;;;0.87;;
25327;SDS011;13279;51.300;12.394;2023-08-30T14:04:45;1.17;;;0.90;;
25327;SDS011;13279;51.300;12.394;2023-08-30T14:07:12;1.07;;;0.97;;
25327;SDS011;13279;51.300;12.394;2023-08-30T14:09:40;1.50;;;0.90;;
25327;SDS011;13279;51.300;12.394;2023-08-30T14:12:07;1.80;;;1.20;;
25327;SDS011;13279;51.300;12.394;2023-08-30T14:14:35;7.23;;;1.50;;
25327;SDS011;13279;51.300;12.394;2023-08-30T14:17:03;3.03;;;1.03;;
25327;SDS011;13279;51.300;12.394;2023-08-30T14:19:30;1.10;;;1.10;;
25327;SDS011;13279;51.300;12.394;2023-08-30T14:22:01;1.20;;;1.10;;
25327;SDS011;13279;51.300;12.394;2023-08-30T14:24:31;2.03;;;1.10;;
25327;SDS011;13279;51.300;12.394;2023-08-30T14:26:58;1.20;;;1.10;;
25327;SDS011;13279;51.300;12.394;2023-08-30T14:29:26;1.60;;;1.13;;
25327;SDS011;13279;51.300;12.394;2023-08-30T14:31:53;1.23;;;1.13;;
25327;SDS011;13279;51.300;12.394;2023-08-30T14:34:21;1.20;;;1.20;;
25327;SDS011;13279;51.300;12.394;2023-08-30T14:36:48;3.13;;;1.02;;
25327;SDS011;13279;51.300;12.394;2023-08-30T14:39:17;0.95;;;0.95;;
25327;SDS011;13279;51.300;12.394;2023-08-30T14:41:44;3.30;;;0.90;;